createdAt,value
2022-07-25T00:01:40.219Z,94.40
2022-07-25T00:04:10.420Z,94.40
2022-07-25T00:06:40.343Z,94.60
2022-07-25T00:09:09.958Z,94.50
2022-07-25T00:11:39.553Z,94.70
2022-07-25T00:14:09.466Z,94.80
2022-07-25T00:16:37.832Z,94.60
2022-07-25T00:19:05.857Z,94.80
2022-07-25T00:21:35.815Z,95.00
2022-07-25T00:24:04.752Z,94.90
2022-07-25T00:26:37.929Z,95.00
2022-07-25T00:29:09.760Z,94.90
2022-07-25T00:31:38.482Z,95.20
2022-07-25T00:34:08.270Z,95.40
2022-07-25T00:36:36.564Z,95.40
2022-07-25T00:39:07.546Z,95.50
2022-07-25T00:41:36.760Z,95.60
2022-07-25T00:44:04.671Z,95.60
2022-07-25T00:46:32.384Z,95.70
2022-07-25T00:49:01.655Z,95.80
2022-07-25T00:51:31.165Z,95.80
2022-07-25T00:54:01.506Z,95.90
2022-07-25T00:56:30.342Z,96.00
2022-07-25T00:58:58.017Z,96.00
2022-07-25T01:01:26.590Z,95.90
2022-07-25T01:03:54.123Z,96.40
2022-07-25T01:06:24.898Z,96.30
2022-07-25T01:08:54.322Z,96.30
2022-07-25T01:11:24.749Z,96.10
2022-07-25T01:13:53.532Z,96.40
2022-07-25T01:16:23.238Z,96.50
2022-07-25T01:18:51.747Z,96.60
2022-07-25T01:21:20.339Z,96.60
2022-07-25T01:23:49.943Z,96.70
2022-07-25T01:26:19.542Z,96.80
2022-07-25T01:28:49.142Z,96.80
2022-07-25T01:31:16.788Z,97.00
2022-07-25T01:33:46.323Z,96.90
2022-07-25T01:36:14.910Z,97.00
2022-07-25T01:38:42.516Z,97.00
2022-07-25T01:41:11.113Z,96.90
2022-07-25T01:43:38.706Z,97.00
2022-07-25T01:46:08.394Z,97.20
2022-07-25T01:48:38.497Z,97.40
2022-07-25T01:51:07.525Z,97.30
2022-07-25T01:53:39.134Z,97.50
2022-07-25T01:56:08.981Z,97.70
2022-07-25T01:58:39.733Z,97.70
2022-07-25T02:01:08.010Z,97.70
2022-07-25T02:03:37.538Z,97.90
2022-07-25T02:06:09.146Z,97.90
2022-07-25T02:08:37.744Z,97.90
2022-07-25T02:11:05.330Z,97.90
2022-07-25T02:13:32.929Z,97.90
2022-07-25T02:16:00.521Z,98.00
2022-07-25T02:18:29.119Z,98.10
2022-07-25T02:20:56.196Z,98.00
2022-07-25T02:23:26.315Z,97.90
2022-07-25T02:25:55.910Z,97.90
2022-07-25T02:28:24.520Z,97.90
2022-07-25T02:30:52.155Z,97.90
2022-07-25T02:33:21.724Z,97.90
2022-07-25T02:35:49.306Z,98.00
2022-07-25T02:38:20.905Z,98.40
2022-07-25T02:40:53.533Z,98.30
2022-07-25T02:43:23.142Z,98.30
2022-07-25T02:45:50.779Z,98.40
2022-07-25T02:48:20.334Z,98.40
2022-07-25T02:50:47.997Z,98.50
2022-07-25T02:53:24.667Z,98.50
2022-07-25T02:56:04.180Z,98.40
2022-07-25T02:58:33.802Z,98.50
2022-07-25T03:01:01.418Z,98.60
2022-07-25T03:03:32.067Z,98.90
2022-07-25T03:06:01.643Z,98.70
2022-07-25T03:08:30.214Z,98.80
2022-07-25T03:11:00.269Z,98.90
2022-07-25T03:13:27.613Z,99.00
2022-07-25T03:15:55.667Z,99.10
2022-07-25T03:18:24.591Z,99.10
2022-07-25T03:20:53.183Z,99.10
2022-07-25T03:23:21.812Z,99.30
2022-07-25T03:25:51.418Z,99.40
2022-07-25T03:28:18.973Z,99.40
2022-07-25T03:30:46.588Z,99.60
2022-07-25T03:33:14.163Z,99.50
2022-07-25T03:35:41.759Z,99.60
2022-07-25T03:38:09.357Z,99.70
2022-07-25T03:40:37.955Z,99.70
2022-07-25T03:43:06.555Z,99.80
2022-07-25T03:45:36.096Z,99.90
2022-07-25T03:48:04.759Z,99.90
2022-07-25T03:50:33.346Z,99.90
2022-07-25T03:53:00.936Z,99.90
2022-07-25T03:55:29.554Z,99.90
2022-07-25T03:57:58.137Z,99.90
2022-07-25T04:00:25.713Z,99.90
2022-07-25T04:02:55.318Z,99.90
2022-07-25T04:05:22.978Z,99.90
2022-07-25T04:07:52.654Z,99.90
2022-07-25T04:10:21.143Z,99.90
2022-07-25T04:12:50.706Z,99.90
2022-07-25T04:15:19.309Z,99.90
2022-07-25T04:28:31.569Z,99.90
2022-07-25T04:31:00.107Z,99.90
2022-07-25T04:33:30.729Z,99.90
2022-07-25T04:36:01.295Z,99.90
2022-07-25T04:38:29.982Z,99.90
2022-07-25T04:40:59.493Z,99.90
2022-07-25T04:43:28.093Z,99.90
2022-07-25T04:45:56.808Z,99.90
2022-07-25T04:48:25.389Z,99.90
2022-07-25T04:50:54.911Z,99.90
2022-07-25T04:53:25.274Z,99.90
2022-07-25T04:55:54.086Z,99.90
2022-07-25T04:58:22.748Z,99.90
2022-07-25T05:00:52.335Z,99.90
2022-07-25T05:03:21.886Z,99.90
2022-07-25T05:05:50.432Z,99.90
2022-07-25T05:08:20.067Z,99.90
2022-07-25T05:10:47.672Z,99.90
2022-07-25T05:13:17.322Z,99.90
2022-07-25T05:15:46.878Z,99.90
2022-07-25T05:18:16.500Z,99.90
2022-07-25T05:20:45.097Z,99.90
2022-07-25T05:23:14.665Z,99.90
2022-07-25T05:25:42.281Z,99.90
2022-07-25T05:28:10.897Z,99.90
2022-07-25T05:30:40.023Z,99.90
2022-07-25T05:33:07.862Z,99.90
2022-07-25T05:35:36.722Z,99.90
2022-07-25T05:38:07.298Z,99.90
2022-07-25T05:40:36.901Z,99.90
2022-07-25T05:43:05.492Z,99.90
2022-07-25T05:45:40.680Z,99.90
2022-07-25T05:48:10.743Z,99.90
2022-07-25T05:50:38.350Z,99.90
2022-07-25T05:53:06.931Z,99.90
2022-07-25T05:55:35.523Z,99.90
2022-07-25T05:58:08.141Z,99.90
2022-07-25T06:00:37.705Z,99.90
2022-07-25T06:05:51.462Z,99.90
2022-07-25T06:08:24.855Z,99.90
2022-07-25T06:10:54.213Z,99.90
2022-07-25T06:13:34.664Z,99.90
2022-07-25T06:16:59.665Z,99.90
2022-07-25T06:19:28.274Z,99.90
2022-07-25T06:22:02.584Z,99.90
2022-07-25T06:25:16.696Z,99.90
2022-07-25T06:28:03.425Z,99.90
2022-07-25T06:30:33.963Z,99.90
2022-07-25T06:33:36.120Z,99.90
2022-07-25T06:36:09.348Z,99.90
2022-07-25T06:38:51.960Z,99.70
2022-07-25T06:41:19.528Z,99.30
2022-07-25T06:53:59.127Z,97.20
2022-07-25T20:03:52.433Z,79.70
2022-07-25T20:06:26.007Z,79.50
2022-07-25T20:08:55.105Z,79.50
2022-07-25T20:11:26.098Z,79.90
2022-07-25T20:13:57.453Z,80.10
2022-07-25T20:16:31.702Z,80.30
2022-07-25T20:19:05.955Z,80.30
2022-07-25T20:21:42.826Z,80.60
2022-07-25T20:24:26.108Z,81.10
2022-07-25T23:13:59.765Z,90.80
2022-07-25T23:17:19.341Z,90.70
2022-07-25T23:20:01.744Z,90.80
2022-07-25T23:22:33.050Z,90.80
2022-07-25T23:25:03.396Z,90.90
2022-07-25T23:27:44.414Z,91.00
2022-07-25T23:30:13.899Z,91.10
2022-07-25T23:32:43.512Z,90.70
2022-07-25T23:35:14.088Z,90.70
2022-07-25T23:37:54.780Z,90.70
2022-07-25T23:40:42.173Z,90.70
2022-07-25T23:43:15.175Z,90.60
2022-07-25T23:46:03.726Z,90.60
2022-07-25T23:48:34.166Z,90.50
2022-07-25T23:51:08.906Z,90.50
2022-07-25T23:54:37.514Z,90.40
2022-07-25T23:57:26.003Z,90.40
2022-07-25T23:59:57.199Z,90.50
